createdAt,value
2018-11-27T00:00:07.016Z,0.277777777778
2018-11-27T00:00:19.504Z,0.277777777778
2018-11-27T00:00:31.913Z,0.277777777778
2018-11-27T00:00:44.294Z,0.277777777778
2018-11-27T00:00:56.672Z,0.277777777778
2018-11-27T00:01:09.030Z,0.277777777778
2018-11-27T00:01:21.408Z,0.277777777778
2018-11-27T00:01:33.769Z,0.277777777778
2018-11-27T00:01:46.118Z,0.277777777778
2018-11-27T00:01:58.937Z,0.277777777778
2018-11-27T00:02:11.355Z,0.277777777778
2018-11-27T00:02:23.700Z,0.222222222222
2018-11-27T00:02:36.050Z,0.277777777778
2018-11-27T00:02:48.399Z,0.222222222222
2018-11-27T00:03:00.763Z,0.222222222222
2018-11-27T00:03:13.178Z,0.277777777778
2018-11-27T00:03:25.529Z,0.277777777778
2018-11-27T00:03:37.874Z,0.222222222222
2018-11-27T00:03:50.223Z,0.222222222222
2018-11-27T00:04:02.559Z,0.222222222222
2018-11-27T00:04:14.927Z,0.222222222222
2018-11-27T00:04:27.339Z,0.222222222222
2018-11-27T00:04:39.689Z,0.222222222222
2018-11-27T00:04:52.047Z,0.222222222222
2018-11-27T00:05:04.403Z,0.222222222222
2018-11-27T00:05:16.914Z,0.222222222222
2018-11-27T00:05:29.280Z,0.222222222222
2018-11-27T00:05:41.679Z,0.222222222222
2018-11-27T00:05:54.035Z,0.222222222222
2018-11-27T00:06:06.396Z,0.222222222222
2018-11-27T00:06:18.764Z,0.166666666667
2018-11-27T00:06:31.127Z,0.166666666667
2018-11-27T00:06:43.481Z,0.166666666667
2018-11-27T00:06:55.840Z,0.222222222222
2018-11-27T00:07:08.197Z,0.166666666667
2018-11-27T00:07:20.546Z,0.166666666667
2018-11-27T00:07:32.897Z,0.166666666667
2018-11-27T00:07:45.294Z,0.166666666667
2018-11-27T00:07:58.076Z,0.166666666667
2018-11-27T00:08:10.452Z,0.166666666667
2018-11-27T00:08:22.799Z,0.166666666667
2018-11-27T00:08:35.155Z,0.166666666667
2018-11-27T00:08:47.525Z,0.166666666667
2018-11-27T00:08:59.865Z,0.166666666667
2018-11-27T00:09:12.196Z,0.166666666667
2018-11-27T00:09:24.535Z,0.166666666667
2018-11-27T00:09:36.871Z,0.166666666667
2018-11-27T00:09:49.224Z,0.166666666667
2018-11-27T00:10:01.581Z,0.166666666667
2018-11-27T00:10:13.970Z,0.166666666667
2018-11-27T00:10:26.323Z,0.166666666667
2018-11-27T00:10:38.675Z,0.166666666667
2018-11-27T00:10:51.052Z,0.166666666667
2018-11-27T00:11:03.412Z,0.166666666667
2018-11-27T00:11:15.754Z,0.111111111111
2018-11-27T00:11:28.101Z,0.166666666667
2018-11-27T00:11:40.451Z,0.111111111111
2018-11-27T00:11:52.854Z,0.166666666667
2018-11-27T00:12:05.199Z,0.111111111111
2018-11-27T00:12:17.552Z,0.111111111111
2018-11-27T00:12:29.906Z,0.111111111111
2018-11-27T00:12:42.276Z,0.111111111111
2018-11-27T00:12:54.625Z,0.111111111111
2018-11-27T00:13:07.217Z,0.111111111111
2018-11-27T00:13:19.572Z,0.111111111111
2018-11-27T00:13:31.929Z,0.111111111111
2018-11-27T00:13:44.512Z,0.111111111111
2018-11-27T00:13:56.874Z,0.111111111111
2018-11-27T00:14:09.223Z,0.111111111111
2018-11-27T00:14:21.579Z,0.111111111111
2018-11-27T00:14:33.936Z,0.111111111111
2018-11-27T00:14:46.281Z,0.111111111111
2018-11-27T00:14:58.639Z,0.111111111111
2018-11-27T00:15:11.012Z,0.0555555555556
2018-11-27T00:15:23.366Z,0.0555555555556
2018-11-27T00:15:35.725Z,0.0555555555556
2018-11-27T00:15:48.078Z,0.111111111111
2018-11-27T00:16:00.465Z,0.111111111111
2018-11-27T00:16:12.830Z,0.0555555555556
2018-11-27T00:16:25.171Z,0.0555555555556
2018-11-27T00:16:37.531Z,0.0555555555556
2018-11-27T00:16:49.879Z,0.0555555555556
2018-11-27T00:17:02.246Z,0.0555555555556
2018-11-27T00:17:14.612Z,0.0555555555556
2018-11-27T00:17:27.258Z,0.0555555555556
2018-11-27T00:17:39.598Z,0.0555555555556
2018-11-27T00:17:51.935Z,0.0555555555556
2018-11-27T00:18:05.474Z,0.0555555555556
2018-11-27T00:18:17.833Z,0.0555555555556
2018-11-27T00:18:30.193Z,0.0555555555556
2018-11-27T00:18:42.559Z,0.0555555555556
2018-11-27T00:18:54.960Z,0
2018-11-27T00:19:07.317Z,0.0555555555556
2018-11-27T00:19:19.666Z,0.0555555555556
2018-11-27T00:19:32.019Z,0
2018-11-27T00:19:44.359Z,0.0555555555556
2018-11-27T00:19:56.718Z,0.0555555555556
2018-11-27T00:20:09.081Z,0
2018-11-27T00:20:21.555Z,0
2018-11-27T00:20:34.011Z,0.0555555555556
2018-11-27T00:20:46.366Z,0
2018-11-27T00:20:58.708Z,0
2018-11-27T00:21:11.059Z,0
2018-11-27T00:21:23.460Z,0
2018-11-27T00:21:35.816Z,0
2018-11-27T00:21:48.173Z,0
2018-11-27T00:22:00.518Z,0
2018-11-27T00:22:13.004Z,0
2018-11-27T00:22:25.361Z,0
2018-11-27T00:22:37.710Z,0
2018-11-27T00:22:50.074Z,0
2018-11-27T00:23:02.435Z,0
2018-11-27T00:23:14.797Z,0
2018-11-27T00:23:27.177Z,-0.0555555555556
2018-11-27T00:23:39.529Z,-0.0555555555556
2018-11-27T00:23:51.877Z,-0.0555555555556
2018-11-27T00:24:04.230Z,-0.0555555555556
2018-11-27T00:24:16.590Z,-0.0555555555556
2018-11-27T00:24:28.930Z,-0.0555555555556
2018-11-27T00:24:41.290Z,-0.0555555555556
2018-11-27T00:24:53.696Z,-0.0555555555556
2018-11-27T00:25:06.046Z,-0.0555555555556
2018-11-27T00:25:18.462Z,-0.0555555555556
2018-11-27T00:25:30.886Z,-0.0555555555556
2018-11-27T00:25:43.227Z,-0.0555555555556
2018-11-27T00:25:55.705Z,-0.0555555555556
2018-11-27T00:26:08.641Z,-0.0555555555556
2018-11-27T00:26:21.028Z,-0.0555555555556
2018-11-27T00:26:33.530Z,-0.0555555555556
2018-11-27T00:26:45.888Z,-0.0555555555556
2018-11-27T00:26:58.237Z,-0.0555555555556
2018-11-27T00:27:10.589Z,-0.111111111111
2018-11-27T00:27:23.094Z,-0.111111111111
2018-11-27T00:27:35.439Z,-0.111111111111
2018-11-27T00:27:47.815Z,-0.111111111111
2018-11-27T00:28:00.170Z,-0.111111111111
2018-11-27T00:28:12.521Z,-0.111111111111
2018-11-27T00:28:24.865Z,-0.111111111111
2018-11-27T00:28:37.366Z,-0.111111111111
2018-11-27T00:28:49.702Z,-0.111111111111
2018-11-27T00:29:02.051Z,-0.111111111111
2018-11-27T00:29:14.392Z,-0.111111111111
2018-11-27T00:29:26.775Z,-0.111111111111
2018-11-27T00:29:39.111Z,-0.111111111111
2018-11-27T00:29:51.463Z,-0.111111111111
2018-11-27T00:30:03.797Z,-0.111111111111
2018-11-27T00:30:16.144Z,-0.111111111111
2018-11-27T00:30:28.512Z,-0.111111111111
2018-11-27T00:30:41.245Z,-0.111111111111
2018-11-27T00:30:53.582Z,-0.111111111111
2018-11-27T00:31:05.971Z,-0.166666666667
2018-11-27T00:31:18.326Z,-0.166666666667
2018-11-27T00:31:30.708Z,-0.111111111111
2018-11-27T00:31:43.044Z,-0.166666666667
2018-11-27T00:31:55.386Z,-0.111111111111
2018-11-27T00:32:07.744Z,-0.166666666667
2018-11-27T00:32:20.105Z,-0.166666666667
2018-11-27T00:32:32.464Z,-0.166666666667
2018-11-27T00:32:44.923Z,-0.166666666667
2018-11-27T00:32:57.300Z,-0.166666666667
2018-11-27T00:33:09.660Z,-0.166666666667
2018-11-27T00:33:22.006Z,-0.166666666667
2018-11-27T00:33:34.363Z,-0.166666666667
2018-11-27T00:33:46.711Z,-0.166666666667
2018-11-27T00:33:59.055Z,-0.166666666667
2018-11-27T00:34:11.490Z,-0.166666666667
2018-11-27T00:34:23.837Z,-0.166666666667
2018-11-27T00:34:36.194Z,-0.166666666667
2018-11-27T00:34:48.563Z,-0.166666666667
2018-11-27T00:35:00.899Z,-0.166666666667
2018-11-27T00:35:13.246Z,-0.166666666667
2018-11-27T00:35:25.649Z,-0.166666666667
2018-11-27T00:35:37.989Z,-0.166666666667
2018-11-27T00:35:50.334Z,-0.222222222222
2018-11-27T00:36:02.693Z,-0.166666666667
2018-11-27T00:36:15.028Z,-0.222222222222
2018-11-27T00:36:27.370Z,-0.166666666667
2018-11-27T00:36:39.708Z,-0.222222222222
2018-11-27T00:36:52.053Z,-0.166666666667
2018-11-27T00:37:04.415Z,-0.222222222222
2018-11-27T00:37:16.783Z,-0.222222222222
2018-11-27T00:37:29.133Z,-0.222222222222
2018-11-27T00:37:41.489Z,-0.222222222222
2018-11-27T00:37:53.874Z,-0.222222222222
2018-11-27T00:38:06.238Z,-0.277777777778
2018-11-27T00:38:18.587Z,-0.222222222222
2018-11-27T00:38:30.946Z,-0.277777777778
2018-11-27T00:38:43.296Z,-0.277777777778
2018-11-27T00:38:55.652Z,-0.277777777778
2018-11-27T00:39:08.148Z,-0.277777777778
2018-11-27T00:39:20.509Z,-0.277777777778
2018-11-27T00:39:32.845Z,-0.277777777778
2018-11-27T00:39:45.187Z,-0.277777777778
2018-11-27T00:39:57.540Z,-0.277777777778
2018-11-27T00:40:09.892Z,-0.277777777778
2018-11-27T00:40:22.237Z,-0.277777777778
2018-11-27T00:40:34.608Z,-0.277777777778
2018-11-27T00:40:47.247Z,-0.277777777778
2018-11-27T00:40:59.676Z,-0.277777777778
2018-11-27T00:41:12.239Z,-0.277777777778
2018-11-27T00:41:25.579Z,-0.277777777778
2018-11-27T00:41:37.945Z,-0.277777777778
2018-11-27T00:41:50.291Z,-0.277777777778
2018-11-27T00:42:02.684Z,-0.277777777778
2018-11-27T00:42:15.025Z,-0.277777777778
2018-11-27T00:42:27.383Z,-0.277777777778
2018-11-27T00:42:39.738Z,-0.277777777778
2018-11-27T00:42:52.087Z,-0.277777777778
2018-11-27T00:43:04.449Z,-0.277777777778
2018-11-27T00:43:16.956Z,-0.277777777778
2018-11-27T00:43:29.308Z,-0.277777777778
2018-11-27T00:43:41.676Z,-0.277777777778
2018-11-27T00:43:54.010Z,-0.277777777778
2018-11-27T00:44:06.357Z,-0.333333333333
2018-11-27T00:44:18.840Z,-0.333333333333
2018-11-27T00:44:31.194Z,-0.333333333333
2018-11-27T00:44:43.564Z,-0.277777777778
2018-11-27T00:44:55.916Z,-0.277777777778
2018-11-27T00:45:08.245Z,-0.277777777778
2018-11-27T00:45:20.621Z,-0.333333333333
2018-11-27T00:45:32.985Z,-0.333333333333
2018-11-27T00:45:45.461Z,-0.333333333333
2018-11-27T00:45:57.820Z,-0.333333333333
2018-11-27T00:46:10.186Z,-0.277777777778
2018-11-27T00:46:22.545Z,-0.277777777778
2018-11-27T00:46:34.900Z,-0.277777777778
2018-11-27T00:46:47.302Z,-0.333333333333
2018-11-27T00:46:59.644Z,-0.277777777778
2018-11-27T00:47:11.985Z,-0.277777777778
2018-11-27T00:47:24.336Z,-0.333333333333
2018-11-27T00:47:36.755Z,-0.277777777778
2018-11-27T00:47:49.146Z,-0.333333333333
2018-11-27T00:48:01.520Z,-0.277777777778
2018-11-27T00:48:14.440Z,-0.333333333333
2018-11-27T00:48:26.793Z,-0.277777777778
2018-11-27T00:48:39.141Z,-0.333333333333
2018-11-27T00:48:51.489Z,-0.333333333333
2018-11-27T00:49:03.918Z,-0.277777777778
2018-11-27T00:49:16.301Z,-0.333333333333
2018-11-27T00:49:28.656Z,-0.277777777778
2018-11-27T00:49:41.007Z,-0.333333333333
2018-11-27T00:49:53.523Z,-0.277777777778
2018-11-27T00:50:06.149Z,-0.277777777778
2018-11-27T00:50:18.539Z,-0.333333333333
2018-11-27T00:50:30.891Z,-0.333333333333
2018-11-27T00:50:43.231Z,-0.277777777778
2018-11-27T00:50:55.567Z,-0.277777777778
2018-11-27T00:51:07.926Z,-0.277777777778
2018-11-27T00:51:20.272Z,-0.333333333333
2018-11-27T00:51:32.617Z,-0.277777777778
2018-11-27T00:51:44.977Z,-0.277777777778
2018-11-27T00:51:57.429Z,-0.277777777778
2018-11-27T00:52:09.780Z,-0.277777777778
2018-11-27T00:52:22.137Z,-0.277777777778
2018-11-27T00:52:34.483Z,-0.277777777778
2018-11-27T00:52:46.859Z,-0.333333333333
2018-11-27T00:52:59.224Z,-0.333333333333
2018-11-27T00:53:11.599Z,-0.277777777778
2018-11-27T00:53:24.010Z,-0.333333333333
2018-11-27T00:53:36.365Z,-0.277777777778
2018-11-27T00:53:48.712Z,-0.277777777778
2018-11-27T00:54:01.051Z,-0.277777777778
2018-11-27T00:54:13.427Z,-0.277777777778
2018-11-27T00:54:26.804Z,-0.277777777778
2018-11-27T00:54:39.154Z,-0.333333333333
2018-11-27T00:54:51.492Z,-0.277777777778
2018-11-27T00:55:08.889Z,-0.277777777778
2018-11-27T00:55:21.428Z,-0.277777777778
2018-11-27T00:55:33.816Z,-0.333333333333
2018-11-27T00:55:46.178Z,-0.333333333333
2018-11-27T00:55:58.536Z,-0.277777777778
2018-11-27T00:56:11.024Z,-0.333333333333
2018-11-27T00:56:23.385Z,-0.333333333333
2018-11-27T00:56:35.754Z,-0.333333333333
2018-11-27T00:56:48.113Z,-0.333333333333
2018-11-27T00:57:00.451Z,-0.333333333333
2018-11-27T00:57:12.804Z,-0.277777777778
2018-11-27T00:57:25.162Z,-0.277777777778
2018-11-27T00:57:37.525Z,-0.333333333333
2018-11-27T00:57:49.891Z,-0.333333333333
2018-11-27T00:58:02.286Z,-0.333333333333
2018-11-27T00:58:14.621Z,-0.333333333333
2018-11-27T00:58:26.968Z,-0.333333333333
2018-11-27T00:58:39.311Z,-0.333333333333
2018-11-27T00:58:51.717Z,-0.333333333333
2018-11-27T00:59:04.059Z,-0.333333333333
2018-11-27T00:59:16.406Z,-0.333333333333
2018-11-27T00:59:28.774Z,-0.333333333333
2018-11-27T00:59:41.131Z,-0.333333333333
2018-11-27T00:59:53.473Z,-0.333333333333
2018-11-27T01:00:06.550Z,-0.333333333333
2018-11-27T01:00:19.107Z,-0.333333333333
2018-11-27T01:00:31.509Z,-0.333333333333
2018-11-27T01:00:43.905Z,-0.333333333333
2018-11-27T01:00:56.266Z,-0.333333333333
2018-11-27T01:01:08.648Z,-0.333333333333
2018-11-27T01:01:21.008Z,-0.333333333333
2018-11-27T01:01:33.393Z,-0.333333333333
2018-11-27T01:01:45.758Z,-0.333333333333
2018-11-27T01:01:58.122Z,-0.333333333333
2018-11-27T01:02:10.484Z,-0.333333333333
2018-11-27T01:02:22.826Z,-0.333333333333
2018-11-27T01:02:35.192Z,-0.333333333333
2018-11-27T01:02:47.617Z,-0.333333333333
2018-11-27T01:02:59.973Z,-0.333333333333
2018-11-27T01:03:12.313Z,-0.333333333333
2018-11-27T01:03:24.678Z,-0.333333333333
2018-11-27T01:03:37.051Z,-0.333333333333
2018-11-27T01:03:49.392Z,-0.333333333333
2018-11-27T01:04:01.771Z,-0.333333333333
2018-11-27T01:04:14.145Z,-0.333333333333
2018-11-27T01:04:26.661Z,-0.333333333333
2018-11-27T01:04:39.016Z,-0.333333333333
2018-11-27T01:04:51.368Z,-0.388888888889
2018-11-27T01:05:03.719Z,-0.333333333333
2018-11-27T01:05:16.227Z,-0.333333333333
2018-11-27T01:05:28.586Z,-0.388888888889
2018-11-27T01:05:40.969Z,-0.388888888889
2018-11-27T01:05:53.321Z,-0.388888888889
2018-11-27T01:06:05.666Z,-0.388888888889
2018-11-27T01:06:18.024Z,-0.388888888889
2018-11-27T01:06:30.387Z,-0.333333333333
2018-11-27T01:06:42.733Z,-0.388888888889
2018-11-27T01:06:55.093Z,-0.388888888889
2018-11-27T01:07:07.437Z,-0.388888888889
2018-11-27T01:07:19.773Z,-0.388888888889
2018-11-27T01:07:32.130Z,-0.388888888889
2018-11-27T01:07:44.483Z,-0.388888888889
2018-11-27T01:07:56.876Z,-0.388888888889
2018-11-27T01:08:09.217Z,-0.444444444444
2018-11-27T01:08:21.555Z,-0.444444444444
2018-11-27T01:08:33.900Z,-0.388888888889
2018-11-27T01:08:46.246Z,-0.388888888889
2018-11-27T01:08:58.593Z,-0.388888888889
2018-11-27T01:09:10.946Z,-0.388888888889
2018-11-27T01:09:23.289Z,-0.444444444444
2018-11-27T01:09:35.650Z,-0.444444444444
2018-11-27T01:09:48.007Z,-0.444444444444
2018-11-27T01:10:00.356Z,-0.444444444444
2018-11-27T01:10:12.740Z,-0.444444444444
2018-11-27T01:10:25.087Z,-0.444444444444
2018-11-27T01:10:37.421Z,-0.444444444444
2018-11-27T01:10:49.818Z,-0.444444444444
2018-11-27T01:11:02.182Z,-0.444444444444
2018-11-27T01:11:14.534Z,-0.444444444444
2018-11-27T01:11:26.873Z,-0.444444444444
2018-11-27T01:11:39.225Z,-0.444444444444
2018-11-27T01:11:51.565Z,-0.444444444444
2018-11-27T01:12:04.021Z,-0.444444444444
2018-11-27T01:12:16.365Z,-0.444444444444
2018-11-27T01:12:28.707Z,-0.444444444444
2018-11-27T01:12:41.048Z,-0.444444444444
2018-11-27T01:12:53.435Z,-0.444444444444
2018-11-27T01:13:05.794Z,-0.444444444444
2018-11-27T01:13:18.253Z,-0.444444444444
2018-11-27T01:13:30.597Z,-0.444444444444
2018-11-27T01:13:43.123Z,-0.444444444444
2018-11-27T01:13:55.463Z,-0.444444444444
2018-11-27T01:14:07.799Z,-0.444444444444
2018-11-27T01:14:20.166Z,-0.444444444444
2018-11-27T01:14:32.516Z,-0.444444444444
2018-11-27T01:14:44.877Z,-0.444444444444
2018-11-27T01:14:57.257Z,-0.444444444444
2018-11-27T01:15:09.609Z,-0.5
2018-11-27T01:15:21.995Z,-0.5
2018-11-27T01:15:34.340Z,-0.444444444444
2018-11-27T01:15:46.687Z,-0.444444444444
2018-11-27T01:15:59.042Z,-0.5
2018-11-27T01:16:11.387Z,-0.5
2018-11-27T01:16:23.764Z,-0.5
2018-11-27T01:16:36.140Z,-0.444444444444
2018-11-27T01:16:48.519Z,-0.5
2018-11-27T01:17:00.855Z,-0.5
2018-11-27T01:17:13.201Z,-0.5
2018-11-27T01:17:25.616Z,-0.5
2018-11-27T01:17:38.095Z,-0.5
2018-11-27T01:17:50.485Z,-0.5
2018-11-27T01:18:03.021Z,-0.5
2018-11-27T01:18:15.379Z,-0.5
2018-11-27T01:18:27.798Z,-0.5
2018-11-27T01:18:40.198Z,-0.555555555556
2018-11-27T01:18:52.551Z,-0.555555555556
2018-11-27T01:19:04.901Z,-0.5
2018-11-27T01:19:17.286Z,-0.555555555556
2018-11-27T01:19:29.710Z,-0.555555555556
2018-11-27T01:19:42.044Z,-0.555555555556
2018-11-27T01:19:54.412Z,-0.555555555556
2018-11-27T01:20:06.757Z,-0.555555555556
2018-11-27T01:20:19.113Z,-0.555555555556
2018-11-27T01:20:31.603Z,-0.555555555556
2018-11-27T01:20:43.942Z,-0.555555555556
2018-11-27T01:20:56.283Z,-0.555555555556
2018-11-27T01:21:08.645Z,-0.555555555556
2018-11-27T01:21:20.997Z,-0.555555555556
2018-11-27T01:21:33.385Z,-0.555555555556
2018-11-27T01:21:45.720Z,-0.555555555556
2018-11-27T01:21:58.077Z,-0.555555555556
2018-11-27T01:22:10.641Z,-0.555555555556
2018-11-27T01:22:22.988Z,-0.555555555556
2018-11-27T01:22:35.329Z,-0.555555555556
2018-11-27T01:22:47.690Z,-0.555555555556
2018-11-27T01:23:00.084Z,-0.555555555556
2018-11-27T01:23:12.451Z,-0.555555555556
2018-11-27T01:23:24.834Z,-0.555555555556
2018-11-27T01:23:37.188Z,-0.555555555556
2018-11-27T01:23:49.541Z,-0.555555555556
2018-11-27T01:24:01.894Z,-0.555555555556
2018-11-27T01:24:14.242Z,-0.555555555556
2018-11-27T01:24:26.582Z,-0.611111111111
2018-11-27T01:24:38.915Z,-0.555555555556
2018-11-27T01:24:51.272Z,-0.611111111111
2018-11-27T01:25:03.771Z,-0.555555555556
2018-11-27T01:25:16.156Z,-0.611111111111
2018-11-27T01:25:28.516Z,-0.611111111111
2018-11-27T01:25:40.866Z,-0.611111111111
2018-11-27T01:25:53.439Z,-0.611111111111
2018-11-27T01:26:05.778Z,-0.611111111111
2018-11-27T01:26:18.320Z,-0.611111111111
2018-11-27T01:26:30.682Z,-0.611111111111
2018-11-27T01:26:43.023Z,-0.611111111111
2018-11-27T01:26:55.364Z,-0.611111111111
2018-11-27T01:27:07.700Z,-0.611111111111
2018-11-27T01:27:20.045Z,-0.611111111111
2018-11-27T01:27:32.396Z,-0.611111111111
2018-11-27T01:27:44.755Z,-0.611111111111
2018-11-27T01:27:57.111Z,-0.555555555556
2018-11-27T01:28:09.450Z,-0.611111111111
2018-11-27T01:28:21.810Z,-0.611111111111
2018-11-27T01:28:34.146Z,-0.611111111111
2018-11-27T01:28:46.494Z,-0.611111111111
2018-11-27T01:28:58.877Z,-0.611111111111
2018-11-27T01:29:11.223Z,-0.611111111111
2018-11-27T01:29:23.571Z,-0.611111111111
2018-11-27T01:29:35.966Z,-0.611111111111
2018-11-27T01:29:48.323Z,-0.611111111111
2018-11-27T01:30:00.660Z,-0.611111111111
2018-11-27T01:30:13.010Z,-0.611111111111
2018-11-27T01:30:25.371Z,-0.611111111111
2018-11-27T01:30:37.826Z,-0.611111111111
2018-11-27T01:30:50.163Z,-0.611111111111
2018-11-27T01:31:02.507Z,-0.611111111111
2018-11-27T01:31:14.868Z,-0.611111111111
2018-11-27T01:31:27.214Z,-0.611111111111
2018-11-27T01:31:39.580Z,-0.611111111111
2018-11-27T01:31:51.934Z,-0.611111111111
2018-11-27T01:32:04.309Z,-0.611111111111
2018-11-27T01:32:16.664Z,-0.611111111111
2018-11-27T01:32:29.030Z,-0.611111111111
2018-11-27T01:32:41.394Z,-0.611111111111
2018-11-27T01:32:53.775Z,-0.611111111111
2018-11-27T01:33:06.164Z,-0.611111111111
2018-11-27T01:33:18.512Z,-0.611111111111
2018-11-27T01:33:30.897Z,-0.611111111111
2018-11-27T01:33:43.298Z,-0.611111111111
2018-11-27T01:33:55.649Z,-0.611111111111
2018-11-27T01:34:08.142Z,-0.611111111111
2018-11-27T01:34:20.483Z,-0.611111111111
2018-11-27T01:34:32.816Z,-0.611111111111
2018-11-27T01:34:45.152Z,-0.666666666667
2018-11-27T01:34:57.494Z,-0.611111111111
2018-11-27T01:35:09.854Z,-0.611111111111
2018-11-27T01:35:22.232Z,-0.611111111111
2018-11-27T01:35:34.605Z,-0.666666666667
2018-11-27T01:35:46.958Z,-0.666666666667
2018-11-27T01:35:59.290Z,-0.666666666667
2018-11-27T01:36:11.672Z,-0.611111111111
2018-11-27T01:36:24.030Z,-0.666666666667
2018-11-27T01:36:36.394Z,-0.666666666667
2018-11-27T01:36:48.743Z,-0.611111111111
2018-11-27T01:37:01.081Z,-0.666666666667
2018-11-27T01:37:13.452Z,-0.666666666667
2018-11-27T01:37:25.810Z,-0.666666666667
2018-11-27T01:37:38.158Z,-0.666666666667
2018-11-27T01:37:50.540Z,-0.666666666667
2018-11-27T01:38:02.951Z,-0.666666666667
2018-11-27T01:38:15.308Z,-0.666666666667
2018-11-27T01:38:27.667Z,-0.666666666667
2018-11-27T01:38:40.025Z,-0.666666666667
2018-11-27T01:38:52.390Z,-0.666666666667
2018-11-27T01:39:04.748Z,-0.666666666667
2018-11-27T01:39:17.091Z,-0.666666666667
2018-11-27T01:39:29.438Z,-0.666666666667
2018-11-27T01:39:41.786Z,-0.722222222222
2018-11-27T01:39:54.131Z,-0.722222222222
2018-11-27T01:40:06.498Z,-0.722222222222
2018-11-27T01:40:18.894Z,-0.722222222222
2018-11-27T01:40:31.252Z,-0.722222222222
2018-11-27T01:40:43.763Z,-0.666666666667
2018-11-27T01:40:56.234Z,-0.666666666667
2018-11-27T01:41:08.848Z,-0.722222222222
2018-11-27T01:41:21.211Z,-0.722222222222
2018-11-27T01:41:33.556Z,-0.722222222222
2018-11-27T01:41:45.909Z,-0.666666666667
2018-11-27T01:41:58.252Z,-0.666666666667
2018-11-27T01:42:10.615Z,-0.666666666667
2018-11-27T01:42:22.972Z,-0.666666666667
2018-11-27T01:42:35.310Z,-0.666666666667
2018-11-27T01:42:47.651Z,-0.722222222222
2018-11-27T01:42:59.996Z,-0.722222222222
2018-11-27T01:43:12.339Z,-0.722222222222
2018-11-27T01:43:24.690Z,-0.722222222222
2018-11-27T01:43:37.911Z,-0.666666666667
2018-11-27T01:43:50.260Z,-0.722222222222
2018-11-27T01:44:02.746Z,-0.666666666667
2018-11-27T01:44:15.224Z,-0.722222222222
2018-11-27T01:44:27.571Z,-0.722222222222
2018-11-27T01:44:39.926Z,-0.722222222222
2018-11-27T01:44:52.268Z,-0.722222222222
2018-11-27T01:45:04.663Z,-0.722222222222
2018-11-27T01:45:17.034Z,-0.722222222222
2018-11-27T01:45:29.441Z,-0.722222222222
2018-11-27T01:45:41.817Z,-0.722222222222
2018-11-27T01:45:54.298Z,-0.722222222222
2018-11-27T01:46:06.710Z,-0.722222222222
2018-11-27T01:46:19.044Z,-0.722222222222
2018-11-27T01:46:31.404Z,-0.722222222222
2018-11-27T01:46:43.758Z,-0.722222222222
2018-11-27T01:46:56.108Z,-0.722222222222
2018-11-27T01:47:08.465Z,-0.722222222222
2018-11-27T01:47:20.809Z,-0.722222222222
2018-11-27T01:47:33.157Z,-0.722222222222
2018-11-27T01:47:45.517Z,-0.722222222222
2018-11-27T01:47:57.891Z,-0.722222222222
2018-11-27T01:48:10.252Z,-0.722222222222
2018-11-27T01:48:22.628Z,-0.722222222222
2018-11-27T01:48:35.036Z,-0.722222222222
2018-11-27T01:48:47.382Z,-0.722222222222
2018-11-27T01:48:59.737Z,-0.722222222222
2018-11-27T01:49:12.091Z,-0.722222222222
2018-11-27T01:49:24.426Z,-0.722222222222
2018-11-27T01:49:36.840Z,-0.722222222222
2018-11-27T01:49:49.199Z,-0.722222222222
2018-11-27T01:50:01.983Z,-0.722222222222
2018-11-27T01:50:14.357Z,-0.722222222222
2018-11-27T01:50:26.771Z,-0.722222222222
2018-11-27T01:50:39.106Z,-0.722222222222
2018-11-27T01:50:51.462Z,-0.722222222222
2018-11-27T01:51:03.814Z,-0.722222222222
2018-11-27T01:51:16.200Z,-0.722222222222
2018-11-27T01:51:28.537Z,-0.722222222222
2018-11-27T01:51:40.888Z,-0.722222222222
2018-11-27T01:51:53.341Z,-0.722222222222
2018-11-27T01:52:05.696Z,-0.722222222222
2018-11-27T01:52:18.046Z,-0.722222222222
2018-11-27T01:52:30.398Z,-0.722222222222
2018-11-27T01:52:42.775Z,-0.722222222222
2018-11-27T01:52:55.141Z,-0.777777777778
2018-11-27T01:53:07.552Z,-0.722222222222
2018-11-27T01:53:19.902Z,-0.722222222222
2018-11-27T01:53:32.262Z,-0.777777777778
2018-11-27T01:53:44.610Z,-0.777777777778
2018-11-27T01:53:56.961Z,-0.722222222222
2018-11-27T01:54:09.683Z,-0.777777777778
2018-11-27T01:54:22.011Z,-0.722222222222
2018-11-27T01:54:34.352Z,-0.722222222222
2018-11-27T01:54:46.714Z,-0.722222222222
2018-11-27T01:54:59.068Z,-0.777777777778
2018-11-27T01:55:11.403Z,-0.722222222222
2018-11-27T01:55:23.922Z,-0.722222222222
2018-11-27T01:55:36.281Z,-0.722222222222
2018-11-27T01:55:48.643Z,-0.722222222222
2018-11-27T01:56:00.992Z,-0.722222222222
2018-11-27T01:56:13.339Z,-0.777777777778
2018-11-27T01:56:25.681Z,-0.777777777778
2018-11-27T01:56:38.035Z,-0.777777777778
2018-11-27T01:56:50.411Z,-0.722222222222
2018-11-27T01:57:02.775Z,-0.722222222222
2018-11-27T01:57:15.121Z,-0.722222222222
2018-11-27T01:57:27.463Z,-0.777777777778
2018-11-27T01:57:39.841Z,-0.777777777778
2018-11-27T01:57:52.225Z,-0.777777777778
2018-11-27T01:58:04.568Z,-0.777777777778
2018-11-27T01:58:16.905Z,-0.777777777778
2018-11-27T01:58:29.257Z,-0.777777777778
2018-11-27T01:58:41.597Z,-0.777777777778
2018-11-27T01:58:53.969Z,-0.777777777778
2018-11-27T01:59:06.323Z,-0.777777777778
2018-11-27T01:59:18.675Z,-0.777777777778
2018-11-27T01:59:31.016Z,-0.777777777778
2018-11-27T01:59:43.355Z,-0.777777777778
2018-11-27T01:59:55.699Z,-0.777777777778
2018-11-27T02:00:08.273Z,-0.777777777778
2018-11-27T02:00:20.650Z,-0.777777777778
2018-11-27T02:00:33.046Z,-0.833333333333
2018-11-27T02:00:45.494Z,-0.777777777778
2018-11-27T02:00:57.901Z,-0.777777777778
2018-11-27T02:01:10.272Z,-0.777777777778
2018-11-27T02:01:22.644Z,-0.777777777778
2018-11-27T02:01:35.019Z,-0.833333333333
2018-11-27T02:01:47.389Z,-0.833333333333
2018-11-27T02:01:59.765Z,-0.833333333333
2018-11-27T02:02:12.136Z,-0.777777777778
2018-11-27T02:02:24.492Z,-0.777777777778
2018-11-27T02:02:36.856Z,-0.833333333333
2018-11-27T02:02:49.232Z,-0.833333333333
2018-11-27T02:03:01.584Z,-0.833333333333